sensor_id;sensor_type;location;lat;lon;timestamp;P1;durP1;ratioP1;P2;durP2;ratioP2
17915;SDS011;9083;49.156;8.982;2022-09-03T00:00:59;1.33;;;1.30;;
17915;SDS011;9083;49.156;8.982;2022-09-03T00:03:28;3.00;;;1.03;;
17915;SDS011;9083;49.156;8.982;2022-09-03T00:06:00;1.17;;;1.17;;
17915;SDS011;9083;49.156;8.982;2022-09-03T00:08:29;3.10;;;0.93;;
17915;SDS011;9083;49.156;8.982;2022-09-03T00:10:58;1.30;;;1.20;;
17915;SDS011;9083;49.156;8.982;2022-09-03T00:13:27;2.10;;;1.20;;
17915;SDS011;9083;49.156;8.982;2022-09-03T00:15:54;1.97;;;1.23;;
17915;SDS011;9083;49.156;8.982;2022-09-03T00:18:26;2.20;;;1.27;;
17915;SDS011;9083;49.156;8.982;2022-09-03T00:20:54;1.47;;;1.30;;
17915;SDS011;9083;49.156;8.982;2022-09-03T00:23:23;1.73;;;1.50;;
17915;SDS011;9083;49.156;8.982;2022-09-03T00:25:53;2.10;;;1.20;;
17915;SDS011;9083;49.156;8.982;2022-09-03T00:28:22;3.13;;;1.60;;
17915;SDS011;9083;49.156;8.982;2022-09-03T00:30:50;1.23;;;1.20;;
17915;SDS011;9083;49.156;8.982;2022-09-03T00:33:19;5.03;;;1.37;;
17915;SDS011;9083;49.156;8.982;2022-09-03T00:35:48;3.47;;;1.17;;
17915;SDS011;9083;49.156;8.982;2022-09-03T00:38:17;1.80;;;1.60;;
17915;SDS011;9083;49.156;8.982;2022-09-03T00:40:47;3.77;;;1.13;;
17915;SDS011;9083;49.156;8.982;2022-09-03T00:43:20;1.60;;;1.20;;
17915;SDS011;9083;49.156;8.982;2022-09-03T00:45:53;2.23;;;1.17;;
17915;SDS011;9083;49.156;8.982;2022-09-03T00:48:23;1.50;;;1.40;;
17915;SDS011;9083;49.156;8.982;2022-09-03T00:50:56;1.73;;;1.30;;
17915;SDS011;9083;49.156;8.982;2022-09-03T00:53:27;1.57;;;1.33;;
17915;SDS011;9083;49.156;8.982;2022-09-03T00:55:57;2.70;;;1.93;;
17915;SDS011;9083;49.156;8.982;2022-09-03T00:58:28;2.73;;;1.90;;
17915;SDS011;9083;49.156;8.982;2022-09-03T01:01:00;3.90;;;1.53;;
17915;SDS011;9083;49.156;8.982;2022-09-03T01:03:31;1.30;;;1.20;;
17915;SDS011;9083;49.156;8.982;2022-09-03T01:06:06;0.97;;;0.97;;
17915;SDS011;9083;49.156;8.982;2022-09-03T01:08:49;5.60;;;1.70;;
17915;SDS011;9083;49.156;8.982;2022-09-03T01:11:19;1.40;;;1.30;;
17915;SDS011;9083;49.156;8.982;2022-09-03T01:13:52;2.80;;;1.10;;
17915;SDS011;9083;49.156;8.982;2022-09-03T01:16:24;1.60;;;0.90;;
17915;SDS011;9083;49.156;8.982;2022-09-03T01:18:54;1.33;;;1.23;;
17915;SDS011;9083;49.156;8.982;2022-09-03T01:21:28;3.13;;;1.10;;
17915;SDS011;9083;49.156;8.982;2022-09-03T01:24:02;0.93;;;0.90;;
17915;SDS011;9083;49.156;8.982;2022-09-03T01:26:38;3.50;;;1.10;;
17915;SDS011;9083;49.156;8.982;2022-09-03T01:29:10;1.00;;;1.00;;
17915;SDS011;9083;49.156;8.982;2022-09-03T01:31:44;3.17;;;1.13;;
17915;SDS011;9083;49.156;8.982;2022-09-03T01:34:14;3.87;;;1.10;;
17915;SDS011;9083;49.156;8.982;2022-09-03T01:36:45;2.83;;;1.20;;
17915;SDS011;9083;49.156;8.982;2022-09-03T01:39:16;2.57;;;1.20;;
17915;SDS011;9083;49.156;8.982;2022-09-03T01:41:50;1.00;;;1.00;;
17915;SDS011;9083;49.156;8.982;2022-09-03T01:44:40;1.30;;;1.07;;
17915;SDS011;9083;49.156;8.982;2022-09-03T01:47:10;2.60;;;1.20;;
17915;SDS011;9083;49.156;8.982;2022-09-03T01:49:39;2.20;;;1.10;;
17915;SDS011;9083;49.156;8.982;2022-09-03T01:52:10;1.47;;;1.33;;
17915;SDS011;9083;49.156;8.982;2022-09-03T01:54:40;3.73;;;1.13;;
17915;SDS011;9083;49.156;8.982;2022-09-03T01:57:19;1.47;;;1.20;;
17915;SDS011;9083;49.156;8.982;2022-09-03T01:59:50;1.30;;;1.10;;
17915;SDS011;9083;49.156;8.982;2022-09-03T02:02:21;1.47;;;1.00;;
17915;SDS011;9083;49.156;8.982;2022-09-03T02:04:55;1.97;;;0.90;;
17915;SDS011;9083;49.156;8.982;2022-09-03T02:07:23;0.80;;;0.80;;
17915;SDS011;9083;49.156;8.982;2022-09-03T02:09:50;2.63;;;0.90;;
17915;SDS011;9083;49.156;8.982;2022-09-03T02:12:16;1.80;;;1.20;;
17915;SDS011;9083;49.156;8.982;2022-09-03T02:14:44;1.70;;;0.93;;
17915;SDS011;9083;49.156;8.982;2022-09-03T02:17:12;1.77;;;0.80;;
17915;SDS011;9083;49.156;8.982;2022-09-03T02:19:38;1.23;;;1.10;;
17915;SDS011;9083;49.156;8.982;2022-09-03T02:22:05;2.83;;;1.27;;
17915;SDS011;9083;49.156;8.982;2022-09-03T02:24:31;2.10;;;0.90;;
17915;SDS011;9083;49.156;8.982;2022-09-03T02:26:58;1.10;;;1.00;;
17915;SDS011;9083;49.156;8.982;2022-09-03T02:29:24;1.73;;;1.10;;
17915;SDS011;9083;49.156;8.982;2022-09-03T02:31:51;4.13;;;0.97;;
17915;SDS011;9083;49.156;8.982;2022-09-03T02:34:18;0.90;;;0.90;;
17915;SDS011;9083;49.156;8.982;2022-09-03T02:36:45;1.60;;;0.80;;
17915;SDS011;9083;49.156;8.982;2022-09-03T02:39:12;0.93;;;0.93;;
17915;SDS011;9083;49.156;8.982;2022-09-03T02:41:38;3.50;;;1.10;;
17915;SDS011;9083;49.156;8.982;2022-09-03T02:44:05;2.20;;;1.00;;
17915;SDS011;9083;49.156;8.982;2022-09-03T02:46:34;3.50;;;1.43;;
17915;SDS011;9083;49.156;8.982;2022-09-03T02:49:01;3.30;;;1.10;;
17915;SDS011;9083;49.156;8.982;2022-09-03T02:51:32;2.07;;;1.10;;
17915;SDS011;9083;49.156;8.982;2022-09-03T02:53:59;0.70;;;0.70;;
17915;SDS011;9083;49.156;8.982;2022-09-03T02:56:25;4.53;;;1.10;;
17915;SDS011;9083;49.156;8.982;2022-09-03T02:58:52;0.93;;;0.93;;
17915;SDS011;9083;49.156;8.982;2022-09-03T03:01:18;1.03;;;1.03;;
17915;SDS011;9083;49.156;8.982;2022-09-03T03:03:44;2.97;;;1.10;;
17915;SDS011;9083;49.156;8.982;2022-09-03T03:06:10;0.87;;;0.87;;
17915;SDS011;9083;49.156;8.982;2022-09-03T03:08:39;1.10;;;1.00;;
17915;SDS011;9083;49.156;8.982;2022-09-03T03:11:05;3.13;;;0.90;;
17915;SDS011;9083;49.156;8.982;2022-09-03T03:13:32;2.77;;;1.10;;
17915;SDS011;9083;49.156;8.982;2022-09-03T03:15:58;3.00;;;1.20;;
17915;SDS011;9083;49.156;8.982;2022-09-03T03:18:25;2.43;;;1.00;;
17915;SDS011;9083;49.156;8.982;2022-09-03T03:20:51;1.07;;;1.07;;
17915;SDS011;9083;49.156;8.982;2022-09-03T03:23:18;1.13;;;1.13;;
17915;SDS011;9083;49.156;8.982;2022-09-03T03:25:46;1.30;;;1.20;;
17915;SDS011;9083;49.156;8.982;2022-09-03T03:28:12;3.63;;;1.20;;
17915;SDS011;9083;49.156;8.982;2022-09-03T03:30:39;3.83;;;1.27;;
17915;SDS011;9083;49.156;8.982;2022-09-03T03:33:07;2.00;;;1.10;;
17915;SDS011;9083;49.156;8.982;2022-09-03T03:35:34;4.93;;;1.33;;
17915;SDS011;9083;49.156;8.982;2022-09-03T03:38:00;1.40;;;1.07;;
17915;SDS011;9083;49.156;8.982;2022-09-03T03:40:26;0.90;;;0.90;;
17915;SDS011;9083;49.156;8.982;2022-09-03T03:42:56;1.13;;;1.13;;
17915;SDS011;9083;49.156;8.982;2022-09-03T03:45:22;1.27;;;1.17;;
17915;SDS011;9083;49.156;8.982;2022-09-03T03:47:48;2.93;;;2.03;;
17915;SDS011;9083;49.156;8.982;2022-09-03T03:50:14;2.43;;;1.30;;
17915;SDS011;9083;49.156;8.982;2022-09-03T03:52:41;4.20;;;1.80;;
17915;SDS011;9083;49.156;8.982;2022-09-03T03:55:07;1.07;;;1.00;;
17915;SDS011;9083;49.156;8.982;2022-09-03T03:57:34;1.60;;;1.50;;
17915;SDS011;9083;49.156;8.982;2022-09-03T04:00:02;3.03;;;1.40;;
17915;SDS011;9083;49.156;8.982;2022-09-03T04:02:28;2.10;;;1.73;;
17915;SDS011;9083;49.156;8.982;2022-09-03T04:04:55;1.17;;;1.10;;
17915;SDS011;9083;49.156;8.982;2022-09-03T04:07:21;1.40;;;1.30;;
17915;SDS011;9083;49.156;8.982;2022-09-03T04:09:47;2.77;;;1.50;;
17915;SDS011;9083;49.156;8.982;2022-09-03T04:12:14;1.43;;;1.30;;
17915;SDS011;9083;49.156;8.982;2022-09-03T04:14:41;1.30;;;1.20;;
17915;SDS011;9083;49.156;8.982;2022-09-03T04:17:08;1.47;;;1.33;;
17915;SDS011;9083;49.156;8.982;2022-09-03T04:19:35;1.10;;;1.10;;
17915;SDS011;9083;49.156;8.982;2022-09-03T04:22:02;1.30;;;1.20;;
17915;SDS011;9083;49.156;8.982;2022-09-03T04:24:28;1.10;;;1.00;;
17915;SDS011;9083;49.156;8.982;2022-09-03T04:26:54;1.10;;;1.10;;
17915;SDS011;9083;49.156;8.982;2022-09-03T04:29:21;1.60;;;1.50;;
17915;SDS011;9083;49.156;8.982;2022-09-03T04:31:47;2.73;;;1.17;;
17915;SDS011;9083;49.156;8.982;2022-09-03T04:34:28;1.07;;;1.03;;
17915;SDS011;9083;49.156;8.982;2022-09-03T04:36:55;1.00;;;1.00;;
17915;SDS011;9083;49.156;8.982;2022-09-03T04:39:22;1.30;;;1.20;;
17915;SDS011;9083;49.156;8.982;2022-09-03T04:41:49;3.13;;;1.20;;
17915;SDS011;9083;49.156;8.982;2022-09-03T04:44:15;1.13;;;1.00;;
17915;SDS011;9083;49.156;8.982;2022-09-03T04:46:41;1.20;;;1.10;;
17915;SDS011;9083;49.156;8.982;2022-09-03T04:49:11;1.00;;;0.90;;
17915;SDS011;9083;49.156;8.982;2022-09-03T04:51:39;1.23;;;1.00;;
17915;SDS011;9083;49.156;8.982;2022-09-03T04:54:05;3.77;;;1.40;;
17915;SDS011;9083;49.156;8.982;2022-09-03T04:56:34;2.23;;;0.93;;
17915;SDS011;9083;49.156;8.982;2022-09-03T04:59:01;1.90;;;1.17;;
17915;SDS011;9083;49.156;8.982;2022-09-03T05:01:28;1.77;;;1.10;;
17915;SDS011;9083;49.156;8.982;2022-09-03T05:03:55;1.27;;;1.13;;
17915;SDS011;9083;49.156;8.982;2022-09-03T05:06:22;3.13;;;1.20;;
17915;SDS011;9083;49.156;8.982;2022-09-03T05:08:51;3.80;;;1.40;;
17915;SDS011;9083;49.156;8.982;2022-09-03T05:11:18;2.73;;;1.23;;
17915;SDS011;9083;49.156;8.982;2022-09-03T05:13:46;1.87;;;1.50;;
17915;SDS011;9083;49.156;8.982;2022-09-03T05:16:12;2.83;;;1.40;;
17915;SDS011;9083;49.156;8.982;2022-09-03T05:18:38;1.83;;;1.27;;
17915;SDS011;9083;49.156;8.982;2022-09-03T05:21:07;1.60;;;1.40;;
17915;SDS011;9083;49.156;8.982;2022-09-03T05:23:34;7.03;;;2.37;;
17915;SDS011;9083;49.156;8.982;2022-09-03T05:26:03;2.43;;;1.73;;
17915;SDS011;9083;49.156;8.982;2022-09-03T05:28:33;3.13;;;1.40;;
17915;SDS011;9083;49.156;8.982;2022-09-03T05:31:00;1.10;;;1.10;;
17915;SDS011;9083;49.156;8.982;2022-09-03T05:33:27;2.53;;;1.40;;
17915;SDS011;9083;49.156;8.982;2022-09-03T05:35:53;3.47;;;1.43;;
17915;SDS011;9083;49.156;8.982;2022-09-03T05:38:19;5.13;;;1.67;;
17915;SDS011;9083;49.156;8.982;2022-09-03T05:40:46;5.30;;;1.23;;
17915;SDS011;9083;49.156;8.982;2022-09-03T05:43:13;2.60;;;1.10;;
17915;SDS011;9083;49.156;8.982;2022-09-03T05:45:40;4.57;;;1.40;;
17915;SDS011;9083;49.156;8.982;2022-09-03T05:48:06;4.03;;;1.57;;
17915;SDS011;9083;49.156;8.982;2022-09-03T05:50:33;2.33;;;1.13;;
17915;SDS011;9083;49.156;8.982;2022-09-03T05:52:59;3.10;;;1.73;;
17915;SDS011;9083;49.156;8.982;2022-09-03T05:55:25;3.30;;;1.40;;
17915;SDS011;9083;49.156;8.982;2022-09-03T05:57:53;5.00;;;1.60;;
17915;SDS011;9083;49.156;8.982;2022-09-03T06:00:20;1.50;;;1.33;;
17915;SDS011;9083;49.156;8.982;2022-09-03T06:02:48;4.10;;;1.40;;
17915;SDS011;9083;49.156;8.982;2022-09-03T06:05:15;1.80;;;1.27;;
17915;SDS011;9083;49.156;8.982;2022-09-03T06:07:42;1.90;;;1.27;;
17915;SDS011;9083;49.156;8.982;2022-09-03T06:10:09;1.60;;;1.30;;
17915;SDS011;9083;49.156;8.982;2022-09-03T06:12:36;1.57;;;1.43;;
17915;SDS011;9083;49.156;8.982;2022-09-03T06:15:03;1.37;;;1.30;;
17915;SDS011;9083;49.156;8.982;2022-09-03T06:17:31;2.83;;;1.50;;
17915;SDS011;9083;49.156;8.982;2022-09-03T06:19:58;1.90;;;1.40;;
17915;SDS011;9083;49.156;8.982;2022-09-03T06:22:24;2.83;;;1.33;;
17915;SDS011;9083;49.156;8.982;2022-09-03T06:24:52;3.23;;;1.60;;
17915;SDS011;9083;49.156;8.982;2022-09-03T06:27:18;4.33;;;1.40;;
17915;SDS011;9083;49.156;8.982;2022-09-03T06:29:45;1.97;;;1.50;;
17915;SDS011;9083;49.156;8.982;2022-09-03T06:32:11;1.60;;;1.30;;
17915;SDS011;9083;49.156;8.982;2022-09-03T06:34:39;1.57;;;1.30;;
17915;SDS011;9083;49.156;8.982;2022-09-03T06:37:06;1.47;;;1.33;;
17915;SDS011;9083;49.156;8.982;2022-09-03T06:39:32;3.63;;;1.43;;
17915;SDS011;9083;49.156;8.982;2022-09-03T06:41:58;4.30;;;1.40;;
17915;SDS011;9083;49.156;8.982;2022-09-03T06:44:24;2.53;;;1.17;;
17915;SDS011;9083;49.156;8.982;2022-09-03T06:46:51;1.20;;;1.20;;
17915;SDS011;9083;49.156;8.982;2022-09-03T06:49:17;2.87;;;1.40;;
17915;SDS011;9083;49.156;8.982;2022-09-03T06:51:45;4.10;;;1.23;;
17915;SDS011;9083;49.156;8.982;2022-09-03T06:54:11;1.67;;;1.53;;
17915;SDS011;9083;49.156;8.982;2022-09-03T06:56:39;5.60;;;1.20;;
17915;SDS011;9083;49.156;8.982;2022-09-03T06:59:06;4.20;;;1.43;;
17915;SDS011;9083;49.156;8.982;2022-09-03T07:01:34;1.87;;;1.50;;
17915;SDS011;9083;49.156;8.982;2022-09-03T07:04:03;1.40;;;1.30;;
17915;SDS011;9083;49.156;8.982;2022-09-03T07:06:30;3.97;;;1.50;;
17915;SDS011;9083;49.156;8.982;2022-09-03T07:08:58;2.63;;;1.53;;
17915;SDS011;9083;49.156;8.982;2022-09-03T07:11:25;1.73;;;1.63;;
17915;SDS011;9083;49.156;8.982;2022-09-03T07:13:53;1.50;;;1.40;;
17915;SDS011;9083;49.156;8.982;2022-09-03T07:16:21;1.47;;;1.30;;
17915;SDS011;9083;49.156;8.982;2022-09-03T07:18:47;2.57;;;1.30;;
17915;SDS011;9083;49.156;8.982;2022-09-03T07:21:15;5.43;;;1.37;;
17915;SDS011;9083;49.156;8.982;2022-09-03T07:23:41;5.67;;;1.40;;
17915;SDS011;9083;49.156;8.982;2022-09-03T07:26:10;7.40;;;1.40;;
17915;SDS011;9083;49.156;8.982;2022-09-03T07:28:37;1.70;;;1.20;;
17915;SDS011;9083;49.156;8.982;2022-09-03T07:31:05;1.10;;;1.10;;
17915;SDS011;9083;49.156;8.982;2022-09-03T07:33:31;1.10;;;1.10;;
17915;SDS011;9083;49.156;8.982;2022-09-03T07:36:01;2.33;;;1.50;;
17915;SDS011;9083;49.156;8.982;2022-09-03T07:38:27;2.13;;;1.23;;
17915;SDS011;9083;49.156;8.982;2022-09-03T07:40:56;1.10;;;1.00;;
17915;SDS011;9083;49.156;8.982;2022-09-03T07:43:24;4.10;;;2.27;;
17915;SDS011;9083;49.156;8.982;2022-09-03T07:45:50;3.67;;;1.70;;
17915;SDS011;9083;49.156;8.982;2022-09-03T07:48:18;1.60;;;1.50;;
17915;SDS011;9083;49.156;8.982;2022-09-03T07:50:45;2.20;;;1.77;;
17915;SDS011;9083;49.156;8.982;2022-09-03T07:53:12;1.77;;;1.40;;
17915;SDS011;9083;49.156;8.982;2022-09-03T07:55:38;8.37;;;2.33;;
17915;SDS011;9083;49.156;8.982;2022-09-03T07:58:05;1.90;;;1.20;;
17915;SDS011;9083;49.156;8.982;2022-09-03T08:00:33;3.50;;;1.67;;
17915;SDS011;9083;49.156;8.982;2022-09-03T08:02:59;1.50;;;1.40;;
17915;SDS011;9083;49.156;8.982;2022-09-03T08:05:30;2.70;;;1.40;;
17915;SDS011;9083;49.156;8.982;2022-09-03T08:07:58;2.10;;;1.90;;
17915;SDS011;9083;49.156;8.982;2022-09-03T08:10:24;2.67;;;2.00;;
17915;SDS011;9083;49.156;8.982;2022-09-03T08:12:52;1.40;;;1.40;;
17915;SDS011;9083;49.156;8.982;2022-09-03T08:15:18;1.40;;;1.40;;
17915;SDS011;9083;49.156;8.982;2022-09-03T08:17:46;3.00;;;2.00;;
17915;SDS011;9083;49.156;8.982;2022-09-03T08:20:13;2.43;;;1.77;;
17915;SDS011;9083;49.156;8.982;2022-09-03T08:22:39;2.07;;;1.90;;
17915;SDS011;9083;49.156;8.982;2022-09-03T08:25:06;4.47;;;1.70;;
17915;SDS011;9083;49.156;8.982;2022-09-03T08:27:33;4.47;;;2.00;;
17915;SDS011;9083;49.156;8.982;2022-09-03T08:29:59;1.67;;;1.57;;
17915;SDS011;9083;49.156;8.982;2022-09-03T08:32:27;4.23;;;1.57;;
17915;SDS011;9083;49.156;8.982;2022-09-03T08:34:55;1.53;;;1.50;;
17915;SDS011;9083;49.156;8.982;2022-09-03T08:37:21;3.60;;;1.70;;
17915;SDS011;9083;49.156;8.982;2022-09-03T08:39:53;1.40;;;1.40;;
17915;SDS011;9083;49.156;8.982;2022-09-03T08:42:27;5.90;;;2.07;;
17915;SDS011;9083;49.156;8.982;2022-09-03T08:44:57;2.50;;;1.80;;
17915;SDS011;9083;49.156;8.982;2022-09-03T08:47:28;5.13;;;1.50;;
17915;SDS011;9083;49.156;8.982;2022-09-03T08:49:59;3.43;;;1.70;;
17915;SDS011;9083;49.156;8.982;2022-09-03T08:52:28;1.80;;;1.70;;
17915;SDS011;9083;49.156;8.982;2022-09-03T08:54:57;1.73;;;1.57;;
17915;SDS011;9083;49.156;8.982;2022-09-03T08:57:24;3.13;;;1.63;;
17915;SDS011;9083;49.156;8.982;2022-09-03T08:59:52;3.63;;;1.50;;
17915;SDS011;9083;49.156;8.982;2022-09-03T09:02:21;5.90;;;1.50;;
17915;SDS011;9083;49.156;8.982;2022-09-03T09:04:52;1.90;;;1.70;;
17915;SDS011;9083;49.156;8.982;2022-09-03T09:07:25;1.77;;;1.63;;
17915;SDS011;9083;49.156;8.982;2022-09-03T09:09:56;1.33;;;1.27;;
17915;SDS011;9083;49.156;8.982;2022-09-03T09:12:28;6.63;;;1.80;;
17915;SDS011;9083;49.156;8.982;2022-09-03T09:15:03;4.23;;;1.67;;
17915;SDS011;9083;49.156;8.982;2022-09-03T09:17:35;1.60;;;1.50;;
17915;SDS011;9083;49.156;8.982;2022-09-03T09:20:08;3.20;;;1.80;;
17915;SDS011;9083;49.156;8.982;2022-09-03T09:22:39;3.53;;;1.67;;
17915;SDS011;9083;49.156;8.982;2022-09-03T09:25:07;2.50;;;2.00;;
17915;SDS011;9083;49.156;8.982;2022-09-03T09:27:37;4.27;;;1.73;;
17915;SDS011;9083;49.156;8.982;2022-09-03T09:30:17;3.23;;;2.43;;
17915;SDS011;9083;49.156;8.982;2022-09-03T09:32:43;3.13;;;2.03;;
17915;SDS011;9083;49.156;8.982;2022-09-03T09:35:11;4.43;;;1.83;;
17915;SDS011;9083;49.156;8.982;2022-09-03T09:37:46;2.87;;;1.97;;
17915;SDS011;9083;49.156;8.982;2022-09-03T09:40:21;2.20;;;2.00;;
17915;SDS011;9083;49.156;8.982;2022-09-03T09:42:47;3.50;;;1.83;;
17915;SDS011;9083;49.156;8.982;2022-09-03T09:45:14;3.33;;;2.03;;
17915;SDS011;9083;49.156;8.982;2022-09-03T09:47:40;4.90;;;2.10;;
17915;SDS011;9083;49.156;8.982;2022-09-03T09:50:15;4.67;;;2.00;;
17915;SDS011;9083;49.156;8.982;2022-09-03T09:52:41;3.80;;;2.20;;
17915;SDS011;9083;49.156;8.982;2022-09-03T09:55:13;3.67;;;2.90;;
17915;SDS011;9083;49.156;8.982;2022-09-03T09:57:40;3.73;;;2.27;;
17915;SDS011;9083;49.156;8.982;2022-09-03T10:00:07;3.27;;;2.90;;
17915;SDS011;9083;49.156;8.982;2022-09-03T10:02:34;5.23;;;2.33;;
17915;SDS011;9083;49.156;8.982;2022-09-03T10:05:11;2.40;;;2.20;;
17915;SDS011;9083;49.156;8.982;2022-09-03T10:07:37;2.60;;;2.00;;
17915;SDS011;9083;49.156;8.982;2022-09-03T10:10:05;7.07;;;2.10;;
17915;SDS011;9083;49.156;8.982;2022-09-03T10:12:34;5.07;;;2.43;;
17915;SDS011;9083;49.156;8.982;2022-09-03T10:15:04;5.23;;;2.77;;
17915;SDS011;9083;49.156;8.982;2022-09-03T10:17:34;2.17;;;1.97;;
17915;SDS011;9083;49.156;8.982;2022-09-03T10:20:06;2.93;;;2.03;;
17915;SDS011;9083;49.156;8.982;2022-09-03T10:22:53;3.70;;;2.07;;
17915;SDS011;9083;49.156;8.982;2022-09-03T10:25:20;4.37;;;2.30;;
17915;SDS011;9083;49.156;8.982;2022-09-03T10:27:50;2.10;;;1.90;;
17915;SDS011;9083;49.156;8.982;2022-09-03T10:30:17;2.00;;;1.90;;
17915;SDS011;9083;49.156;8.982;2022-09-03T10:32:44;5.23;;;2.10;;
17915;SDS011;9083;49.156;8.982;2022-09-03T10:35:17;7.70;;;2.07;;
17915;SDS011;9083;49.156;8.982;2022-09-03T10:37:48;13.13;;;2.47;;
17915;SDS011;9083;49.156;8.982;2022-09-03T10:40:21;3.20;;;2.17;;
17915;SDS011;9083;49.156;8.982;2022-09-03T10:42:59;3.27;;;2.57;;
17915;SDS011;9083;49.156;8.982;2022-09-03T10:45:31;2.17;;;1.83;;
17915;SDS011;9083;49.156;8.982;2022-09-03T10:50:45;2.37;;;1.83;;
17915;SDS011;9083;49.156;8.982;2022-09-03T10:53:20;2.97;;;2.10;;
17915;SDS011;9083;49.156;8.982;2022-09-03T10:55:53;2.17;;;1.77;;
17915;SDS011;9083;49.156;8.982;2022-09-03T10:58:27;2.90;;;2.10;;
17915;SDS011;9083;49.156;8.982;2022-09-03T11:00:57;3.13;;;1.87;;
17915;SDS011;9083;49.156;8.982;2022-09-03T11:03:33;3.23;;;2.10;;
17915;SDS011;9083;49.156;8.982;2022-09-03T11:06:07;2.10;;;1.80;;
17915;SDS011;9083;49.156;8.982;2022-09-03T11:08:36;2.37;;;2.20;;
17915;SDS011;9083;49.156;8.982;2022-09-03T11:11:08;2.00;;;1.90;;
17915;SDS011;9083;49.156;8.982;2022-09-03T11:13:39;2.63;;;2.00;;
17915;SDS011;9083;49.156;8.982;2022-09-03T11:16:09;1.90;;;1.80;;
17915;SDS011;9083;49.156;8.982;2022-09-03T11:18:39;2.13;;;1.95;;
17915;SDS011;9083;49.156;8.982;2022-09-03T11:21:07;1.90;;;1.80;;
17915;SDS011;9083;49.156;8.982;2022-09-03T11:23:35;3.40;;;2.10;;
17915;SDS011;9083;49.156;8.982;2022-09-03T11:26:04;2.53;;;2.03;;
17915;SDS011;9083;49.156;8.982;2022-09-03T11:28:34;6.50;;;2.17;;
17915;SDS011;9083;49.156;8.982;2022-09-03T11:31:09;3.63;;;1.77;;
17915;SDS011;9083;49.156;8.982;2022-09-03T11:33:39;5.40;;;2.03;;
17915;SDS011;9083;49.156;8.982;2022-09-03T11:36:06;3.53;;;2.13;;
17915;SDS011;9083;49.156;8.982;2022-09-03T11:38:33;3.33;;;2.47;;
17915;SDS011;9083;49.156;8.982;2022-09-03T11:41:00;2.60;;;2.40;;
17915;SDS011;9083;49.156;8.982;2022-09-03T11:43:28;3.90;;;2.97;;
17915;SDS011;9083;49.156;8.982;2022-09-03T11:46:02;5.13;;;2.47;;
17915;SDS011;9083;49.156;8.982;2022-09-03T11:48:35;3.07;;;2.87;;
17915;SDS011;9083;49.156;8.982;2022-09-03T11:51:02;2.80;;;2.60;;
17915;SDS011;9083;49.156;8.982;2022-09-03T11:53:32;4.00;;;2.60;;
17915;SDS011;9083;49.156;8.982;2022-09-03T11:56:00;5.60;;;2.80;;
17915;SDS011;9083;49.156;8.982;2022-09-03T11:58:28;4.73;;;2.93;;
17915;SDS011;9083;49.156;8.982;2022-09-03T12:00:55;8.40;;;2.83;;
17915;SDS011;9083;49.156;8.982;2022-09-03T12:03:23;2.70;;;2.50;;
17915;SDS011;9083;49.156;8.982;2022-09-03T12:05:54;3.57;;;2.60;;
17915;SDS011;9083;49.156;8.982;2022-09-03T12:08:40;4.93;;;2.50;;
17915;SDS011;9083;49.156;8.982;2022-09-03T12:11:16;3.03;;;2.27;;
17915;SDS011;9083;49.156;8.982;2022-09-03T12:13:47;2.70;;;2.07;;
17915;SDS011;9083;49.156;8.982;2022-09-03T12:19:09;6.67;;;2.57;;
17915;SDS011;9083;49.156;8.982;2022-09-03T12:21:38;3.00;;;1.80;;
17915;SDS011;9083;49.156;8.982;2022-09-03T12:24:05;4.30;;;2.00;;
17915;SDS011;9083;49.156;8.982;2022-09-03T12:26:37;3.10;;;2.10;;
17915;SDS011;9083;49.156;8.982;2022-09-03T12:29:03;2.17;;;2.00;;
17915;SDS011;9083;49.156;8.982;2022-09-03T12:31:31;2.20;;;1.60;;
17915;SDS011;9083;49.156;8.982;2022-09-03T12:33:59;1.90;;;1.80;;
17915;SDS011;9083;49.156;8.982;2022-09-03T12:36:34;2.80;;;2.20;;
17915;SDS011;9083;49.156;8.982;2022-09-03T12:39:07;2.40;;;2.20;;
17915;SDS011;9083;49.156;8.982;2022-09-03T12:41:34;2.50;;;2.30;;
17915;SDS011;9083;49.156;8.982;2022-09-03T12:44:02;3.27;;;2.20;;
17915;SDS011;9083;49.156;8.982;2022-09-03T12:46:29;4.00;;;2.07;;
17915;SDS011;9083;49.156;8.982;2022-09-03T12:48:56;5.20;;;2.10;;
17915;SDS011;9083;49.156;8.982;2022-09-03T12:51:26;2.63;;;2.13;;
17915;SDS011;9083;49.156;8.982;2022-09-03T12:53:56;2.63;;;2.37;;
17915;SDS011;9083;49.156;8.982;2022-09-03T12:56:24;3.53;;;2.00;;
17915;SDS011;9083;49.156;8.982;2022-09-03T12:58:52;4.80;;;2.03;;
17915;SDS011;9083;49.156;8.982;2022-09-03T13:01:22;4.30;;;2.03;;
17915;SDS011;9083;49.156;8.982;2022-09-03T13:03:51;3.03;;;2.13;;
17915;SDS011;9083;49.156;8.982;2022-09-03T13:06:22;5.87;;;3.10;;
17915;SDS011;9083;49.156;8.982;2022-09-03T13:08:50;9.48;;;2.15;;
17915;SDS011;9083;49.156;8.982;2022-09-03T13:11:18;2.60;;;1.73;;
17915;SDS011;9083;49.156;8.982;2022-09-03T13:13:52;1.92;;;1.83;;
17915;SDS011;9083;49.156;8.982;2022-09-03T13:19:04;3.10;;;2.35;;
17915;SDS011;9083;49.156;8.982;2022-09-03T13:21:34;2.55;;;1.90;;
17915;SDS011;9083;49.156;8.982;2022-09-03T13:24:13;3.15;;;2.00;;
17915;SDS011;9083;49.156;8.982;2022-09-03T13:26:45;2.75;;;2.35;;
17915;SDS011;9083;49.156;8.982;2022-09-03T13:29:38;3.03;;;2.03;;
17915;SDS011;9083;49.156;8.982;2022-09-03T13:32:07;5.65;;;1.95;;
17915;SDS011;9083;49.156;8.982;2022-09-03T13:34:35;2.90;;;1.90;;
17915;SDS011;9083;49.156;8.982;2022-09-03T13:37:05;1.70;;;1.60;;
17915;SDS011;9083;49.156;8.982;2022-09-03T13:39:37;1.90;;;1.80;;
17915;SDS011;9083;49.156;8.982;2022-09-03T13:42:05;1.45;;;1.45;;
17915;SDS011;9083;49.156;8.982;2022-09-03T13:44:37;2.47;;;1.67;;
17915;SDS011;9083;49.156;8.982;2022-09-03T13:47:08;2.20;;;2.00;;
17915;SDS011;9083;49.156;8.982;2022-09-03T13:49:39;1.90;;;1.80;;
17915;SDS011;9083;49.156;8.982;2022-09-03T13:52:26;4.40;;;2.17;;
17915;SDS011;9083;49.156;8.982;2022-09-03T13:54:56;2.67;;;2.47;;
17915;SDS011;9083;49.156;8.982;2022-09-03T13:57:29;2.95;;;2.30;;
17915;SDS011;9083;49.156;8.982;2022-09-03T13:59:59;3.67;;;1.90;;
17915;SDS011;9083;49.156;8.982;2022-09-03T14:02:33;3.50;;;1.93;;
17915;SDS011;9083;49.156;8.982;2022-09-03T14:05:03;2.17;;;2.07;;
17915;SDS011;9083;49.156;8.982;2022-09-03T14:07:36;2.23;;;2.13;;
17915;SDS011;9083;49.156;8.982;2022-09-03T14:10:10;2.47;;;2.27;;
17915;SDS011;9083;49.156;8.982;2022-09-03T14:12:41;2.37;;;2.27;;
17915;SDS011;9083;49.156;8.982;2022-09-03T14:15:14;2.23;;;2.00;;
17915;SDS011;9083;49.156;8.982;2022-09-03T14:17:45;2.00;;;1.80;;
17915;SDS011;9083;49.156;8.982;2022-09-03T14:20:16;6.70;;;2.53;;
17915;SDS011;9083;49.156;8.982;2022-09-03T14:22:47;4.30;;;2.13;;
17915;SDS011;9083;49.156;8.982;2022-09-03T14:25:16;4.40;;;2.40;;
17915;SDS011;9083;49.156;8.982;2022-09-03T14:27:43;4.10;;;2.17;;
17915;SDS011;9083;49.156;8.982;2022-09-03T14:30:16;14.77;;;2.80;;
17915;SDS011;9083;49.156;8.982;2022-09-03T14:32:45;8.13;;;3.77;;
17915;SDS011;9083;49.156;8.982;2022-09-03T14:35:21;38.37;;;5.30;;
17915;SDS011;9083;49.156;8.982;2022-09-03T14:37:53;14.17;;;4.33;;
17915;SDS011;9083;49.156;8.982;2022-09-03T14:40:24;6.43;;;3.13;;
17915;SDS011;9083;49.156;8.982;2022-09-03T14:43:04;9.37;;;3.53;;
17915;SDS011;9083;49.156;8.982;2022-09-03T14:45:41;8.93;;;3.30;;
17915;SDS011;9083;49.156;8.982;2022-09-03T14:48:24;5.90;;;3.17;;
17915;SDS011;9083;49.156;8.982;2022-09-03T14:50:59;5.53;;;3.00;;
17915;SDS011;9083;49.156;8.982;2022-09-03T14:53:39;7.00;;;2.43;;
17915;SDS011;9083;49.156;8.982;2022-09-03T14:56:14;3.57;;;2.23;;
17915;SDS011;9083;49.156;8.982;2022-09-03T14:58:48;7.13;;;3.40;;
17915;SDS011;9083;49.156;8.982;2022-09-03T15:01:22;9.43;;;3.93;;
17915;SDS011;9083;49.156;8.982;2022-09-03T15:03:56;8.60;;;3.50;;
17915;SDS011;9083;49.156;8.982;2022-09-03T15:06:31;5.53;;;3.37;;
17915;SDS011;9083;49.156;8.982;2022-09-03T15:09:10;5.60;;;3.20;;
17915;SDS011;9083;49.156;8.982;2022-09-03T15:11:42;6.87;;;4.07;;
17915;SDS011;9083;49.156;8.982;2022-09-03T15:14:12;6.43;;;3.30;;
17915;SDS011;9083;49.156;8.982;2022-09-03T15:16:42;7.67;;;3.80;;
17915;SDS011;9083;49.156;8.982;2022-09-03T15:19:15;6.40;;;3.30;;
17915;SDS011;9083;49.156;8.982;2022-09-03T15:21:48;6.40;;;3.20;;